createdAt,value
2018-10-06T00:01:18.496Z,9.43
2018-10-06T00:03:46.860Z,8.83
2018-10-06T00:06:15.262Z,8.67
2018-10-06T00:08:43.440Z,8.50
2018-10-06T00:11:11.793Z,8.83
2018-10-06T00:13:40.141Z,8.63
2018-10-06T00:16:08.357Z,9.10
2018-10-06T00:18:36.648Z,8.47
2018-10-06T00:21:05.095Z,8.60
2018-10-06T00:23:33.344Z,8.70
2018-10-06T00:26:01.822Z,8.10
2018-10-06T00:28:30.074Z,8.27
2018-10-06T00:30:58.242Z,8.63
2018-10-06T00:33:26.524Z,8.47
2018-10-06T00:35:54.680Z,8.53
2018-10-06T00:38:22.943Z,8.27
2018-10-06T00:40:51.190Z,9.03
2018-10-06T00:43:19.400Z,8.87
2018-10-06T00:45:47.756Z,9.30
2018-10-06T00:48:16.074Z,9.23
2018-10-06T00:50:44.339Z,8.97
2018-10-06T00:53:12.523Z,9.30
2018-10-06T00:55:40.823Z,9.47
2018-10-06T00:58:09.135Z,9.30
2018-10-06T01:00:37.429Z,8.27
2018-10-06T01:03:05.706Z,8.60
2018-10-06T01:05:34.001Z,8.77
2018-10-06T01:08:02.366Z,9.20
2018-10-06T01:10:30.551Z,9.40
2018-10-06T01:12:58.757Z,8.07
2018-10-06T01:15:26.981Z,8.50
2018-10-06T01:17:55.149Z,8.83
2018-10-06T01:20:23.353Z,8.50
2018-10-06T01:22:51.758Z,8.60
2018-10-06T01:25:20.037Z,8.37
2018-10-06T01:27:48.192Z,8.37
2018-10-06T01:30:16.519Z,8.17
2018-10-06T01:32:44.664Z,8.70
2018-10-06T01:35:12.908Z,8.00
2018-10-06T01:37:42.376Z,8.83
2018-10-06T01:40:10.659Z,8.23
2018-10-06T01:42:38.852Z,8.37
2018-10-06T01:45:07.189Z,9.10
2018-10-06T01:47:35.929Z,9.30
2018-10-06T01:50:04.404Z,8.47
2018-10-06T01:52:32.555Z,8.17
2018-10-06T01:55:00.800Z,8.87
2018-10-06T01:57:29.044Z,9.30
2018-10-06T01:59:57.330Z,9.30
2018-10-06T02:02:25.607Z,8.87
2018-10-06T02:04:53.850Z,9.23
2018-10-06T02:07:22.057Z,8.87
2018-10-06T02:09:50.512Z,8.67
2018-10-06T02:12:18.623Z,8.80
2018-10-06T02:14:46.806Z,9.23
2018-10-06T02:17:14.920Z,9.90
2018-10-06T02:19:43.098Z,8.50
2018-10-06T02:22:11.212Z,8.73
2018-10-06T02:24:39.410Z,7.60
2018-10-06T02:27:07.674Z,7.40
2018-10-06T02:29:35.811Z,7.70
2018-10-06T02:32:03.976Z,6.90
2018-10-06T02:34:32.244Z,6.80
2018-10-06T02:37:00.581Z,6.80
2018-10-06T02:39:28.697Z,6.97
2018-10-06T02:41:56.834Z,8.00
2018-10-06T02:44:24.950Z,7.23
2018-10-06T02:46:53.119Z,7.00
2018-10-06T02:49:21.327Z,6.67
2018-10-06T02:51:49.442Z,6.53
2018-10-06T02:54:17.654Z,7.03
2018-10-06T02:56:45.863Z,7.20
2018-10-06T02:59:14.093Z,7.83
2018-10-06T03:01:42.304Z,7.70
2018-10-06T03:04:10.481Z,7.60
2018-10-06T03:06:38.698Z,8.63
2018-10-06T03:09:06.958Z,8.53
2018-10-06T03:11:35.501Z,8.63
2018-10-06T03:14:03.714Z,9.93
2018-10-06T03:16:31.910Z,8.90
2018-10-06T03:19:00.192Z,9.00
2018-10-06T03:21:28.512Z,8.50
2018-10-06T03:23:56.738Z,8.77
2018-10-06T03:26:24.997Z,9.90
2018-10-06T03:28:53.208Z,9.37
2018-10-06T03:31:21.306Z,9.53
2018-10-06T03:33:49.590Z,9.40
2018-10-06T03:36:17.824Z,10.27
2018-10-06T03:38:45.983Z,10.13
2018-10-06T03:41:15.400Z,9.60
2018-10-06T03:43:43.611Z,9.27
2018-10-06T03:46:12.389Z,9.60
2018-10-06T03:48:40.889Z,9.37
2018-10-06T03:51:09.112Z,9.50
2018-10-06T03:53:37.436Z,9.13
2018-10-06T03:56:05.770Z,9.17
2018-10-06T03:58:34.151Z,9.17
2018-10-06T04:01:02.567Z,8.83
2018-10-06T04:03:30.647Z,8.93
2018-10-06T04:05:58.955Z,9.03
2018-10-06T04:08:27.097Z,8.67
2018-10-06T04:10:55.308Z,9.83
2018-10-06T04:13:26.664Z,9.47
2018-10-06T04:15:57.438Z,8.63
2018-10-06T04:18:25.830Z,9.27
2018-10-06T04:20:54.054Z,9.30
2018-10-06T04:23:22.486Z,10.13
2018-10-06T04:25:50.788Z,10.37
2018-10-06T04:28:18.979Z,9.97
2018-10-06T04:30:47.079Z,10.10
2018-10-06T04:33:15.319Z,11.27
2018-10-06T04:35:43.466Z,10.30
2018-10-06T04:38:11.799Z,10.23
2018-10-06T04:40:40.061Z,9.63
2018-10-06T04:43:08.355Z,11.00
2018-10-06T04:45:36.645Z,10.33
2018-10-06T04:48:04.938Z,9.93
2018-10-06T04:50:33.250Z,9.87
2018-10-06T04:53:01.496Z,9.97
2018-10-06T04:55:30.250Z,10.27
2018-10-06T04:57:58.465Z,10.53
2018-10-06T05:00:26.757Z,10.97
2018-10-06T05:02:55.232Z,11.63
2018-10-06T05:05:23.529Z,12.37
2018-10-06T05:07:51.743Z,13.63
2018-10-06T05:10:20.023Z,13.60
2018-10-06T05:12:48.244Z,12.90
2018-10-06T05:15:16.670Z,12.57
2018-10-06T05:17:45.096Z,12.87
2018-10-06T05:20:13.310Z,12.33
2018-10-06T05:22:41.619Z,12.57
2018-10-06T05:25:09.877Z,13.10
2018-10-06T05:27:38.100Z,12.47
2018-10-06T05:30:06.387Z,12.90
2018-10-06T05:32:34.686Z,13.80
2018-10-06T05:35:02.959Z,14.17
2018-10-06T05:37:31.285Z,12.40
2018-10-06T05:39:59.919Z,12.80
2018-10-06T05:42:28.116Z,12.60
2018-10-06T05:44:56.352Z,13.47
2018-10-06T05:47:24.948Z,14.60
2018-10-06T05:49:53.231Z,16.50
2018-10-06T05:52:22.522Z,16.13
2018-10-06T05:54:51.211Z,14.70
2018-10-06T05:57:19.552Z,14.77
2018-10-06T05:59:47.757Z,15.03
2018-10-06T06:02:16.066Z,15.90
2018-10-06T06:04:44.258Z,14.87
2018-10-06T06:07:12.486Z,16.63
2018-10-06T06:09:42.010Z,16.37
2018-10-06T06:12:10.463Z,14.70
2018-10-06T06:14:38.672Z,15.63
2018-10-06T06:17:07.071Z,15.30
2018-10-06T06:19:35.238Z,16.07
2018-10-06T06:22:03.427Z,16.53
2018-10-06T06:24:32.029Z,15.17
2018-10-06T06:27:00.314Z,16.33
2018-10-06T06:29:28.668Z,15.77
2018-10-06T06:31:57.069Z,17.00
2018-10-06T06:34:25.422Z,16.33
2018-10-06T06:36:53.697Z,15.50
2018-10-06T06:39:22.085Z,16.23
2018-10-06T06:41:50.369Z,15.83
2018-10-06T06:44:18.787Z,16.20
2018-10-06T06:46:47.077Z,15.97
2018-10-06T06:49:15.377Z,15.40
2018-10-06T06:51:43.666Z,16.30
2018-10-06T06:54:11.927Z,16.83
2018-10-06T06:56:40.204Z,16.53
2018-10-06T06:59:08.468Z,16.80
2018-10-06T07:01:36.661Z,17.57
2018-10-06T07:04:05.165Z,16.37
2018-10-06T07:06:33.664Z,17.37
2018-10-06T07:09:02.058Z,17.67
2018-10-06T07:11:30.382Z,17.80
2018-10-06T07:14:18.158Z,16.93
2018-10-06T07:16:46.707Z,17.03
2018-10-06T07:19:21.272Z,16.70
2018-10-06T07:21:49.785Z,16.63
2018-10-06T07:24:18.119Z,16.07
2018-10-06T07:26:46.681Z,17.80
2018-10-06T07:29:15.179Z,15.80
2018-10-06T07:31:45.262Z,16.13
2018-10-06T07:34:13.624Z,16.33
2018-10-06T07:36:45.025Z,16.50
2018-10-06T07:39:13.367Z,15.80
2018-10-06T07:41:54.125Z,15.67
2018-10-06T07:44:22.493Z,15.20
2018-10-06T07:46:51.612Z,16.80
2018-10-06T07:49:20.378Z,15.27
2018-10-06T07:51:48.806Z,15.57
2018-10-06T07:54:17.309Z,15.37
2018-10-06T07:56:45.699Z,14.60
2018-10-06T07:59:14.052Z,15.03
2018-10-06T08:01:42.276Z,13.17
2018-10-06T08:04:10.569Z,13.73
2018-10-06T08:06:39.705Z,13.37
2018-10-06T08:09:08.648Z,14.63
2018-10-06T08:11:36.841Z,14.90
2018-10-06T08:14:05.049Z,13.20
2018-10-06T08:16:33.291Z,13.43
2018-10-06T08:19:01.818Z,14.23
2018-10-06T08:21:30.357Z,13.27
2018-10-06T08:23:58.736Z,13.63
2018-10-06T08:26:26.946Z,13.83
2018-10-06T08:28:55.381Z,14.03
2018-10-06T08:31:23.928Z,13.80
2018-10-06T08:33:52.480Z,12.80
2018-10-06T08:36:20.816Z,13.00
2018-10-06T08:38:49.180Z,13.10
2018-10-06T08:41:18.099Z,13.80
2018-10-06T08:43:46.510Z,13.37
2018-10-06T08:46:14.771Z,12.87
2018-10-06T08:48:43.072Z,13.43
2018-10-06T08:51:11.387Z,12.47
2018-10-06T08:56:25.314Z,13.30
2018-10-06T08:58:54.063Z,13.33
2018-10-06T09:01:23.473Z,13.73
2018-10-06T09:03:52.243Z,13.03
2018-10-06T09:06:20.819Z,13.87
2018-10-06T09:08:49.522Z,13.90
2018-10-06T09:11:26.950Z,13.10
2018-10-06T09:13:55.677Z,13.80
2018-10-06T09:16:24.426Z,14.20
2018-10-06T09:18:53.122Z,13.83
2018-10-06T09:21:22.097Z,13.73
2018-10-06T09:23:50.818Z,14.40
2018-10-06T09:26:19.420Z,13.47
2018-10-06T09:28:48.854Z,14.87
2018-10-06T09:31:17.726Z,14.17
2018-10-06T09:33:46.338Z,14.03
2018-10-06T09:36:15.153Z,14.50
2018-10-06T09:38:43.827Z,15.23
2018-10-06T09:41:12.376Z,15.37
2018-10-06T09:43:40.854Z,14.93
2018-10-06T09:46:09.385Z,15.30
2018-10-06T09:48:37.946Z,14.50
2018-10-06T09:51:06.610Z,15.60
2018-10-06T09:53:35.718Z,15.10
2018-10-06T09:56:04.477Z,15.20
2018-10-06T09:58:33.233Z,13.80
2018-10-06T10:01:07.495Z,13.90
2018-10-06T10:03:41.482Z,15.37
2018-10-06T10:06:10.182Z,14.30
2018-10-06T10:08:38.830Z,14.13
2018-10-06T10:11:07.499Z,14.47
2018-10-06T10:13:36.778Z,13.97
2018-10-06T10:16:05.632Z,14.33
2018-10-06T10:18:34.518Z,13.30
2018-10-06T10:21:03.436Z,14.63
2018-10-06T10:23:32.710Z,13.63
2018-10-06T10:26:01.501Z,12.63
2018-10-06T10:28:30.180Z,13.10
2018-10-06T10:30:58.747Z,12.90
2018-10-06T10:33:27.390Z,12.83
2018-10-06T10:35:56.304Z,13.17
2018-10-06T10:38:24.978Z,12.43
2018-10-06T10:40:53.745Z,12.90
2018-10-06T10:43:22.221Z,12.10
2018-10-06T10:45:51.507Z,11.13
2018-10-06T10:48:21.971Z,12.07
2018-10-06T10:50:50.871Z,12.20
2018-10-06T10:53:19.510Z,12.00
2018-10-06T10:55:48.219Z,11.70
2018-10-06T10:58:16.950Z,11.20
2018-10-06T11:00:46.020Z,11.05
2018-10-06T11:03:14.570Z,10.88
2018-10-06T11:05:43.620Z,10.93
2018-10-06T11:08:12.056Z,11.35
2018-10-06T11:10:40.883Z,11.22
2018-10-06T11:13:09.724Z,12.35
2018-10-06T11:15:38.268Z,11.03
2018-10-06T11:18:06.926Z,11.43
2018-10-06T11:20:35.447Z,11.60
2018-10-06T11:26:34.677Z,11.93
2018-10-06T11:29:05.304Z,10.98
2018-10-06T11:31:33.916Z,10.30
2018-10-06T11:34:03.473Z,9.83
2018-10-06T11:36:32.221Z,11.18
2018-10-06T11:39:01.409Z,9.53
2018-10-06T11:41:41.330Z,8.93
2018-10-06T11:44:10.385Z,9.73
2018-10-06T11:49:32.018Z,7.85
2018-10-06T11:52:00.812Z,7.87
2018-10-06T11:54:30.771Z,8.23
2018-10-06T11:56:59.554Z,8.45
2018-10-06T11:59:29.202Z,8.13
2018-10-06T12:01:57.913Z,7.90
2018-10-06T12:04:26.491Z,8.03
2018-10-06T12:06:55.069Z,8.63
2018-10-06T12:09:23.639Z,7.85
2018-10-06T12:11:54.051Z,7.75
2018-10-06T12:14:23.792Z,7.40
2018-10-06T12:16:54.276Z,6.85
2018-10-06T12:19:22.999Z,6.65
2018-10-06T12:21:51.929Z,5.83
2018-10-06T12:24:20.980Z,5.12
2018-10-06T12:26:50.496Z,4.60
2018-10-06T12:29:26.073Z,4.22
2018-10-06T12:32:01.158Z,4.10
2018-10-06T12:34:32.979Z,3.50
2018-10-06T12:39:54.667Z,3.15
2018-10-06T12:42:35.628Z,2.58
2018-10-06T12:45:24.639Z,2.70
2018-10-06T12:47:54.391Z,3.27
2018-10-06T12:50:23.272Z,3.52
2018-10-06T12:52:52.037Z,3.00
2018-10-06T12:55:22.003Z,3.72
2018-10-06T13:00:46.551Z,4.28
2018-10-06T13:06:09.138Z,5.55
2018-10-06T13:14:23.652Z,4.22
2018-10-06T13:22:40.700Z,4.55
2018-10-06T13:25:10.969Z,4.60
2018-10-06T13:30:32.573Z,5.08
2018-10-06T13:36:10.546Z,3.22
2018-10-06T13:38:39.558Z,4.00
2018-10-06T13:41:08.373Z,4.97
2018-10-06T13:43:37.081Z,3.77
2018-10-06T13:48:58.203Z,3.45
2018-10-06T13:51:29.834Z,3.65
2018-10-06T13:53:59.302Z,4.08
2018-10-06T14:02:14.662Z,3.83
2018-10-06T14:04:43.543Z,3.80
2018-10-06T14:07:12.908Z,3.22
2018-10-06T14:09:42.315Z,3.52
2018-10-06T14:12:11.025Z,3.35
2018-10-06T14:14:39.931Z,3.87
2018-10-06T14:17:08.581Z,3.35
2018-10-06T14:19:37.492Z,3.20
2018-10-06T14:22:06.618Z,3.25
2018-10-06T14:24:35.611Z,3.35
2018-10-06T14:27:04.297Z,3.80
2018-10-06T14:29:32.838Z,4.05
2018-10-06T14:32:01.490Z,3.90
2018-10-06T14:34:30.550Z,5.17
2018-10-06T14:36:59.302Z,4.30
2018-10-06T14:39:28.529Z,4.70
2018-10-06T14:41:57.254Z,5.47
2018-10-06T14:44:26.314Z,4.10
2018-10-06T14:46:55.661Z,4.50
2018-10-06T14:49:25.098Z,4.30
2018-10-06T14:51:53.663Z,5.00
2018-10-06T14:54:22.423Z,5.03
2018-10-06T14:56:51.153Z,4.70
2018-10-06T14:59:19.870Z,5.37
2018-10-06T15:01:48.456Z,5.03
2018-10-06T15:04:17.065Z,5.27
2018-10-06T15:06:49.242Z,5.80
2018-10-06T15:09:19.639Z,5.80
2018-10-06T15:11:49.681Z,5.50
2018-10-06T15:14:18.091Z,5.93
2018-10-06T15:16:46.989Z,6.50
2018-10-06T15:19:16.381Z,6.50
2018-10-06T15:21:45.578Z,6.60
2018-10-06T15:24:14.932Z,7.33
2018-10-06T15:26:44.158Z,6.03
2018-10-06T15:29:13.731Z,7.00
2018-10-06T15:31:43.224Z,6.60
2018-10-06T15:34:12.773Z,7.67
2018-10-06T15:36:41.949Z,7.47
2018-10-06T15:39:13.592Z,8.87
2018-10-06T15:41:42.993Z,8.47
2018-10-06T15:44:12.804Z,15.20
2018-10-06T15:46:42.019Z,11.67
2018-10-06T15:49:10.868Z,9.10
2018-10-06T15:51:40.098Z,9.20
2018-10-06T15:54:09.688Z,8.90
2018-10-06T15:56:39.047Z,14.30
2018-10-06T15:59:09.927Z,11.30
2018-10-06T16:01:39.670Z,11.23
2018-10-06T16:04:09.581Z,12.23
2018-10-06T16:06:39.142Z,12.20
2018-10-06T16:09:07.861Z,16.13
2018-10-06T16:11:37.252Z,13.13
2018-10-06T16:14:05.775Z,13.17
2018-10-06T16:16:34.261Z,17.70
2018-10-06T16:19:02.925Z,12.57
2018-10-06T16:21:31.668Z,12.33
2018-10-06T16:24:00.337Z,10.80
2018-10-06T16:26:28.895Z,11.70
2018-10-06T16:28:57.564Z,11.47
2018-10-06T16:31:26.375Z,14.10
2018-10-06T16:33:55.035Z,12.97
2018-10-06T16:36:23.736Z,15.30
2018-10-06T16:38:55.278Z,25.37
2018-10-06T16:41:23.811Z,20.80
2018-10-06T16:43:52.494Z,20.40
2018-10-06T16:46:21.084Z,14.60
2018-10-06T16:48:49.747Z,16.93
2018-10-06T16:51:18.464Z,18.10
2018-10-06T16:53:47.157Z,24.90
2018-10-06T16:56:15.680Z,14.90
2018-10-06T16:58:45.312Z,13.73
2018-10-06T17:01:14.023Z,14.07
2018-10-06T17:03:42.668Z,14.60
2018-10-06T17:06:11.344Z,13.10
2018-10-06T17:08:40.850Z,13.00
2018-10-06T17:11:09.612Z,14.23
2018-10-06T17:13:38.233Z,14.53
2018-10-06T17:16:07.075Z,14.53
2018-10-06T17:18:35.681Z,15.10
2018-10-06T17:21:04.146Z,16.10
2018-10-06T17:23:32.686Z,15.30
2018-10-06T17:26:01.235Z,15.67
2018-10-06T17:28:29.670Z,16.33
2018-10-06T17:31:00.607Z,16.70
2018-10-06T17:33:29.510Z,16.00
2018-10-06T17:35:58.499Z,17.80
2018-10-06T17:38:26.897Z,20.40
2018-10-06T17:40:55.705Z,20.17
2018-10-06T17:43:24.607Z,20.77
2018-10-06T17:45:53.444Z,22.37
2018-10-06T17:48:22.009Z,23.20
2018-10-06T17:50:50.741Z,24.87
2018-10-06T17:53:19.089Z,24.83
2018-10-06T17:55:47.731Z,25.43
2018-10-06T17:58:16.309Z,25.47
2018-10-06T18:00:44.964Z,26.10
2018-10-06T18:03:13.743Z,27.70
2018-10-06T18:05:42.514Z,27.80
2018-10-06T18:08:10.960Z,27.43
2018-10-06T18:10:45.477Z,27.60
2018-10-06T18:13:14.069Z,28.23
2018-10-06T18:15:42.592Z,29.63
2018-10-06T18:18:11.350Z,27.63
2018-10-06T18:20:39.990Z,28.17
2018-10-06T18:23:08.517Z,28.17
2018-10-06T18:25:37.005Z,29.67
2018-10-06T18:28:05.665Z,31.13
2018-10-06T18:30:34.392Z,30.40
2018-10-06T18:33:03.170Z,32.23
2018-10-06T18:35:33.115Z,31.00
2018-10-06T18:38:01.847Z,30.60
2018-10-06T18:40:30.360Z,33.20
2018-10-06T18:42:59.209Z,34.47
2018-10-06T18:45:27.554Z,32.20
2018-10-06T18:47:56.063Z,32.03
2018-10-06T18:50:24.851Z,32.50
2018-10-06T18:52:53.625Z,31.20
2018-10-06T18:55:22.100Z,31.77
2018-10-06T18:57:50.423Z,31.23
2018-10-06T19:00:18.907Z,31.97
2018-10-06T19:02:47.368Z,32.83
2018-10-06T19:05:15.815Z,33.67
2018-10-06T19:07:44.321Z,32.73
2018-10-06T19:10:12.890Z,30.73
2018-10-06T19:12:41.368Z,34.27
2018-10-06T19:15:09.945Z,36.27
2018-10-06T19:17:38.502Z,35.17
2018-10-06T19:20:07.318Z,36.00
2018-10-06T19:22:35.792Z,36.80
2018-10-06T19:25:04.173Z,35.47
2018-10-06T19:27:32.826Z,36.23
2018-10-06T19:30:01.349Z,35.40
2018-10-06T19:32:29.960Z,35.17
2018-10-06T19:34:58.468Z,35.50
2018-10-06T19:37:26.915Z,35.47
2018-10-06T19:39:55.550Z,32.33
2018-10-06T19:42:24.146Z,31.17
2018-10-06T19:44:53.696Z,30.13
2018-10-06T19:47:22.254Z,27.93
2018-10-06T19:49:51.419Z,27.60
2018-10-06T19:52:20.000Z,27.67
2018-10-06T19:54:49.117Z,25.00
2018-10-06T19:57:19.352Z,23.80
2018-10-06T19:59:47.958Z,23.27
2018-10-06T20:02:16.465Z,24.37
2018-10-06T20:04:44.914Z,23.03
2018-10-06T20:07:13.405Z,22.40
2018-10-06T20:09:41.966Z,22.97
2018-10-06T20:12:10.902Z,24.17
2018-10-06T20:14:39.394Z,23.10
2018-10-06T20:17:08.091Z,20.93
2018-10-06T20:19:36.851Z,21.77
2018-10-06T20:22:06.783Z,22.93
2018-10-06T20:24:35.298Z,21.40
2018-10-06T20:27:04.637Z,21.17
2018-10-06T20:29:33.014Z,20.10
2018-10-06T20:32:01.454Z,19.43
2018-10-06T20:34:33.783Z,18.50
2018-10-06T20:37:02.658Z,18.97
2018-10-06T20:39:31.216Z,19.03
2018-10-06T20:41:59.965Z,16.10
2018-10-06T20:44:28.579Z,16.40
2018-10-06T20:46:57.093Z,17.07
2018-10-06T20:49:25.534Z,17.23
2018-10-06T20:51:55.631Z,17.00
2018-10-06T20:54:24.240Z,15.23
2018-10-06T20:56:52.851Z,14.80
2018-10-06T20:59:21.417Z,15.40
2018-10-06T21:01:49.783Z,16.07
2018-10-06T21:04:18.321Z,16.80
2018-10-06T21:06:46.829Z,15.57
2018-10-06T21:09:15.511Z,14.20
2018-10-06T21:11:43.877Z,15.03
2018-10-06T21:14:12.293Z,12.67
2018-10-06T21:16:42.088Z,11.57
2018-10-06T21:19:11.541Z,10.23
2018-10-06T21:21:41.211Z,8.97
2018-10-06T21:24:10.844Z,9.00
2018-10-06T21:26:40.187Z,8.40
2018-10-06T21:29:10.958Z,7.80
2018-10-06T21:31:40.325Z,7.57
2018-10-06T21:34:09.606Z,7.60
2018-10-06T21:36:39.046Z,7.03
2018-10-06T21:39:09.272Z,5.90
2018-10-06T21:41:39.112Z,6.27
2018-10-06T21:44:08.170Z,4.20
2018-10-06T21:46:37.576Z,4.10
2018-10-06T21:49:05.947Z,4.17
2018-10-06T21:51:34.407Z,3.73
2018-10-06T21:54:03.007Z,3.70
2018-10-06T21:56:31.869Z,4.30
2018-10-06T21:59:00.329Z,4.70
2018-10-06T22:01:28.855Z,4.70
2018-10-06T22:03:57.209Z,4.57
2018-10-06T22:06:25.787Z,4.50
2018-10-06T22:08:55.122Z,5.07
2018-10-06T22:11:23.786Z,4.93
2018-10-06T22:13:52.203Z,3.70
2018-10-06T22:16:20.981Z,3.93
2018-10-06T22:18:49.535Z,3.33
2018-10-06T22:21:18.083Z,2.93
2018-10-06T22:23:46.826Z,2.77
2018-10-06T22:26:15.497Z,2.60
2018-10-06T22:28:44.434Z,2.90
2018-10-06T22:31:13.908Z,2.70
2018-10-06T22:33:42.424Z,2.07
2018-10-06T22:36:11.064Z,1.93
2018-10-06T22:38:39.666Z,2.10
2018-10-06T22:41:08.216Z,1.70
2018-10-06T22:43:36.717Z,1.40
2018-10-06T22:46:05.114Z,1.70
2018-10-06T22:48:33.673Z,1.23
2018-10-06T22:51:02.214Z,1.50
2018-10-06T22:53:30.609Z,1.73
2018-10-06T22:55:59.187Z,1.00
2018-10-06T22:58:33.010Z,1.37
2018-10-06T23:01:01.522Z,1.27
2018-10-06T23:03:30.156Z,1.77
2018-10-06T23:05:58.684Z,1.03
2018-10-06T23:08:27.097Z,1.37
2018-10-06T23:10:55.447Z,0.90
2018-10-06T23:14:26.813Z,1.00
2018-10-06T23:16:55.307Z,0.97
2018-10-06T23:19:23.905Z,1.20
2018-10-06T23:21:52.379Z,0.93
2018-10-06T23:24:20.786Z,1.00
2018-10-06T23:26:49.110Z,1.30
2018-10-06T23:29:17.514Z,1.50
2018-10-06T23:31:45.917Z,1.17
2018-10-06T23:34:14.298Z,0.83
2018-10-06T23:36:42.647Z,1.27
2018-10-06T23:39:10.984Z,1.20
2018-10-06T23:41:39.457Z,1.00
2018-10-06T23:44:07.817Z,1.10
2018-10-06T23:46:36.248Z,1.00
2018-10-06T23:49:04.808Z,0.87
2018-10-06T23:51:33.406Z,0.70
2018-10-06T23:54:02.005Z,1.07
2018-10-06T23:56:30.436Z,0.80
2018-10-06T23:58:58.871Z,0.77
